.
WxDataArchive / Data Records for 2008-12-31
2008-12-30 December 2008 2009-01-01

Data Records for Wednesday, 31 December 2008

Time	Temp	Chill	HIndex	Humid	Dewpt	 Wind 	HiWind	WindDir	Rain 	Barom 
-----	----	-----	------	-----	-----	------	------	-------	-----	----- 
00:00	38.0	35.0	38.0	76	31.1	4	11	270	0.00	29.652 
00:05	38.0	38.0	38.0	76	31.1	3	9	270	0.00	29.651 
00:10	37.6	33.7	37.6	77	31.1	5	11	270	0.00	29.666 
00:15	36.0	32.7	36.0	77	29.5	4	11	315	0.00	29.674 
00:20	34.9	34.9	34.9	78	28.7	3	9	315	0.00	29.683 
00:25	34.1	34.1	34.1	79	28.3	2	6	315	0.00	29.687 
00:30	33.5	33.5	33.5	80	28.0	2	6	338	0.00	29.690 
00:35	32.9	32.9	32.9	81	27.7	3	9	270	0.00	29.701 
00:40	32.7	32.7	32.7	82	27.8	2	8	315	0.00	29.708 
00:45	32.1	32.1	32.1	82	27.2	3	7	315	0.00	29.719 
00:50	31.5	31.5	31.5	83	26.9	2	6	338	0.00	29.722 
00:55	30.9	30.9	30.9	84	26.6	3	8	315	0.00	29.736 
01:00	30.6	30.6	30.6	84	26.4	3	7	292	0.00	29.740 
01:05	30.1	30.1	30.1	84	25.9	3	14	315	0.00	29.751 
01:10	29.8	29.8	29.8	84	25.6	3	14	338	0.00	29.757 
01:15	29.5	24.1	29.5	83	25.0	5	12	315	0.00	29.766 
01:20	29.5	25.2	29.5	82	24.7	4	9	338	0.00	29.766 
01:25	29.5	29.5	29.5	82	24.7	3	9	270	0.00	29.769 
01:30	29.5	29.5	29.5	82	24.7	3	6	338	0.00	29.782 
01:35	29.4	29.4	29.4	81	24.3	3	11	315	0.00	29.785 
01:40	29.3	29.3	29.3	81	24.2	2	6	315	0.00	29.793 
01:45	29.3	29.3	29.3	82	24.5	2	6	315	0.00	29.800 
01:50	29.1	29.1	29.1	82	24.3	2	7	315	0.00	29.806 
01:55	29.0	29.0	29.0	82	24.2	3	7	315	0.00	29.815 
02:00	28.5	28.5	28.5	80	23.1	3	10	338	0.00	29.825 
02:05	28.4	23.9	28.4	79	22.7	4	10	292	0.00	29.830 
02:10	28.1	28.1	28.1	79	22.4	3	10	315	0.00	29.841 
02:15	27.9	23.3	27.9	79	22.2	4	10	292	0.00	29.848 
02:20	27.8	27.8	27.8	79	22.2	2	11	338	0.00	29.849 
02:25	27.6	27.6	27.6	77	21.4	3	10	315	0.00	29.859 
02:30	27.5	27.5	27.5	79	21.9	1	6	292	0.00	29.867 
02:35	27.5	27.5	27.5	79	21.9	3	7	315	0.00	29.873 
02:40	27.3	27.3	27.3	79	21.7	3	9	315	0.00	29.881 
02:45	27.3	27.3	27.3	79	21.7	3	9	338	0.00	29.898 
02:50	27.2	27.2	27.2	80	21.9	2	7	315	0.00	29.909 
02:55	27.2	27.2	27.2	80	21.9	3	12	315	0.00	29.910 
03:00	27.0	27.0	27.0	79	21.4	3	11	315	0.00	29.924 
03:05	26.9	22.2	26.9	77	20.7	4	10	315	0.00	29.927 
03:10	26.9	26.9	26.9	78	21.0	2	6	315	0.00	29.938 
03:15	26.9	26.9	26.9	78	21.0	2	7	315	0.00	29.947 
03:20	26.7	22.0	26.7	77	20.5	4	19	315	0.00	29.953 
03:25	26.7	26.7	26.7	76	20.2	3	9	338	0.00	29.960 
03:30	26.7	22.0	26.7	77	20.5	4	12	292	0.00	29.972 
03:35	26.7	26.7	26.7	77	20.5	3	11	315	0.00	29.974 
03:40	26.7	26.7	26.7	77	20.5	3	13	315	0.00	29.979 
03:45	26.6	26.6	26.6	77	20.4	3	7	315	0.00	29.985 
03:50	26.4	26.4	26.4	76	19.9	2	7	315	0.00	29.990 
03:55	26.1	21.3	26.1	75	19.3	4	11	315	0.00	29.995 
04:00	26.0	21.1	26.0	74	18.9	4	14	0	0.00	30.004 
04:05	25.7	20.8	25.7	73	18.3	4	10	292	0.00	30.006 
04:10	25.7	20.8	25.7	73	18.3	4	11	338	0.00	30.011 
04:15	25.6	20.7	25.6	73	18.2	4	11	292	0.00	30.023 
04:20	25.6	20.7	25.6	72	17.8	4	14	292	0.00	30.025 
04:25	25.3	20.3	25.3	71	17.2	4	9	338	0.00	30.033 
04:30	25.0	25.0	25.0	70	16.6	2	6	338	0.00	30.035 
04:35	24.8	24.8	24.8	70	16.4	2	7	315	0.00	30.039 
04:40	24.7	24.7	24.7	70	16.3	2	7	270	0.00	30.040 
04:45	24.5	24.5	24.5	70	16.1	2	6	270	0.00	30.049 
04:50	24.4	24.4	24.4	70	16.0	2	5	270	0.00	30.050 
04:55	24.2	24.2	24.2	70	15.9	2	5	292	0.00	30.055 
05:00	24.1	24.1	24.1	70	15.8	2	7	315	0.00	30.066 
05:05	24.1	24.1	24.1	71	16.1	1	6	292	0.00	30.074 
05:10	23.9	23.9	23.9	71	15.9	2	9	315	0.00	30.077 
05:15	23.9	23.9	23.9	70	15.6	3	10	315	0.00	30.083 
05:20	23.8	23.8	23.8	70	15.5	2	6	338	0.00	30.084 
05:25	23.6	23.6	23.6	70	15.3	2	6	270	0.00	30.090 
05:30	23.5	23.5	23.5	70	15.2	3	6	315	0.00	30.094 
05:35	23.5	23.5	23.5	70	15.2	2	7	338	0.00	30.099 
05:40	23.3	23.3	23.3	70	15.0	2	7	338	0.00	30.105 
05:45	23.3	23.3	23.3	70	15.0	1	6	338	0.00	30.113 
05:50	23.3	23.3	23.3	70	15.0	2	6	338	0.00	30.115 
05:55	23.5	23.5	23.5	69	14.9	2	7	315	0.00	30.120 
06:00	23.6	23.6	23.6	69	14.9	2	5	338	0.00	30.123 
06:05	23.6	23.6	23.6	69	14.9	2	7	292	0.00	30.130 
06:10	23.6	23.6	23.6	68	14.6	2	6	315	0.00	30.133 
06:15	23.6	23.6	23.6	68	14.6	2	9	338	0.00	30.138 
06:20	23.6	23.6	23.6	68	14.6	2	6	315	0.00	30.142 
06:25	23.6	23.6	23.6	69	14.9	1	4	0	0.00	30.143 
06:30	23.6	23.6	23.6	69	14.9	2	5	338	0.00	30.152 
06:35	23.6	23.6	23.6	69	14.9	2	5	315	0.00	30.155 
06:40	23.6	23.6	23.6	69	14.9	2	5	270	0.00	30.159 
06:45	23.6	23.6	23.6	69	14.9	1	5	338	0.00	30.167 
06:50	23.8	23.8	23.8	69	15.1	2	9	270	0.00	30.169 
06:55	23.8	23.8	23.8	68	14.8	2	8	315	0.00	30.172 
07:00	23.8	23.8	23.8	68	14.8	3	10	338	0.00	30.181 
07:05	23.8	23.8	23.8	68	14.8	3	7	315	0.00	30.182 
07:10	23.8	23.8	23.8	68	14.8	2	6	0	0.00	30.186 
07:15	23.8	23.8	23.8	68	14.8	2	7	315	0.00	30.189 
07:20	23.6	23.6	23.6	68	14.6	3	9	315	0.00	30.194 
07:25	23.6	23.6	23.6	68	14.6	2	6	315	0.00	30.197 
07:30	23.6	23.6	23.6	69	14.9	2	5	315	0.00	30.204 
07:35	23.5	23.5	23.5	71	15.5	2	6	0	0.00	30.206 
07:40	23.3	23.3	23.3	72	15.6	1	4	338	0.00	30.207 
07:45	23.2	23.2	23.2	72	15.5	1	5	292	0.00	30.209 
07:50	23.0	23.0	23.0	72	15.3	2	6	338	0.00	30.216 
07:55	23.0	23.0	23.0	72	15.3	2	6	338	0.00	30.220 
08:00	23.0	23.0	23.0	71	15.0	2	7	315	0.00	30.223 
08:05	22.9	22.9	22.9	71	14.9	2	5	292	0.00	30.229 
08:10	22.9	22.9	22.9	72	15.2	2	6	292	0.00	30.235 
08:15	22.9	22.9	22.9	73	15.6	2	5	338	0.00	30.235 
08:20	22.9	22.9	22.9	73	15.6	1	4	315	0.00	30.236 
08:25	22.7	22.7	22.7	74	15.7	1	3	315	0.00	30.237 
08:30	22.5	22.5	22.5	75	15.8	2	6	338	0.00	30.245 
08:35	22.4	22.4	22.4	76	16.0	1	6	338	0.00	30.250 
08:40	22.4	22.4	22.4	75	15.7	2	5	315	0.00	30.254 
08:45	22.4	22.4	22.4	74	15.4	2	5	315	0.00	30.256 
08:50	22.5	22.5	22.5	73	15.2	1	3	315	0.00	30.255 
08:55	22.5	22.5	22.5	72	14.9	1	3	292	0.00	30.257 
09:00	22.7	22.7	22.7	70	14.4	2	5	0	0.00	30.259 
09:05	22.9	22.9	22.9	69	14.3	1	3	270	0.00	30.257 
09:10	22.9	22.9	22.9	65	12.9	2	7	270	0.00	30.260 
09:15	23.0	23.0	23.0	65	13.0	2	5	0	0.00	30.263 
09:20	23.2	23.2	23.2	65	13.2	1	5	270	0.00	30.264 
09:25	23.2	23.2	23.2	64	12.9	1	3	338	0.00	30.268 
09:30	23.2	23.2	23.2	63	12.5	2	9	270	0.00	30.273 
09:35	23.2	23.2	23.2	62	12.1	3	9	270	0.00	30.276 
09:40	23.2	23.2	23.2	60	11.4	2	7	270	0.00	30.279 
09:45	23.2	23.2	23.2	58	10.6	3	9	292	0.00	30.279 
09:50	23.2	23.2	23.2	57	10.3	3	7	315	0.00	30.279 
09:55	23.2	23.2	23.2	56	9.9	3	12	338	0.00	30.288 
10:00	23.0	23.0	23.0	55	9.3	3	10	292	0.00	30.292 
10:05	23.3	23.3	23.3	54	9.1	3	9	315	0.00	30.294 
10:10	23.5	23.5	23.5	55	9.7	3	7	338	0.00	30.292 
10:15	23.8	23.8	23.8	56	10.4	1	4	0	0.00	30.296 
10:20	24.1	24.1	24.1	56	10.7	2	7	338	0.00	30.299 
10:25	24.4	24.4	24.4	55	10.6	1	6	270	0.00	30.305 
10:30	24.1	24.1	24.1	54	9.9	2	12	270	0.00	30.309 
10:35	23.8	23.8	23.8	54	9.6	2	6	338	0.00	30.314 
10:40	23.5	23.5	23.5	54	9.3	3	7	315	0.00	30.317 
10:45	23.2	23.2	23.2	51	7.8	3	10	338	0.00	30.322 
10:50	23.3	23.3	23.3	50	7.4	3	9	270	0.00	30.325 
10:55	23.8	23.8	23.8	50	7.9	3	10	270	0.00	30.326 
11:00	23.9	23.9	23.9	49	7.6	3	11	315	0.00	30.328 
11:05	24.1	24.1	24.1	47	6.8	3	8	315	0.00	30.331 
11:10	24.1	19.0	24.1	45	5.9	4	15	315	0.00	30.333 
11:15	24.1	19.0	24.1	45	5.9	4	10	315	0.00	30.335 
11:20	24.1	19.0	24.1	46	6.3	4	11	315	0.00	30.338 
11:25	24.2	24.2	24.2	46	6.4	3	13	315	0.00	30.338 
11:30	24.4	24.4	24.4	47	7.1	3	10	0	0.00	30.337 
11:35	24.4	19.3	24.4	46	6.6	4	11	292	0.00	30.336 
11:40	24.5	24.5	24.5	46	6.7	3	7	292	0.00	30.335 
11:45	24.5	24.5	24.5	45	6.2	3	10	315	0.00	30.330 
11:50	24.7	24.7	24.7	46	6.9	3	14	338	0.00	30.332 
11:55	24.8	24.8	24.8	46	7.0	3	12	0	0.00	30.331 
12:00	25.0	25.0	25.0	46	7.2	2	6	0	0.00	30.333 
12:05	25.1	25.1	25.1	46	7.3	2	7	292	0.00	30.339 
12:10	25.0	25.0	25.0	46	7.2	3	7	292	0.00	30.342 
12:15	25.3	25.3	25.3	46	7.4	2	5	315	0.00	30.343 
12:20	25.3	25.3	25.3	47	7.9	2	7	292	0.00	30.340 
12:25	25.7	25.7	25.7	48	8.8	3	7	270	0.00	30.340 
12:30	25.7	25.7	25.7	47	8.3	3	10	292	0.00	30.339 
12:35	25.7	25.7	25.7	47	8.3	3	10	292	0.00	30.337 
12:40	25.7	25.7	25.7	47	8.3	3	8	315	0.00	30.340 
12:45	26.1	26.1	26.1	49	9.6	3	7	315	0.00	30.335 
12:50	26.7	26.7	26.7	50	10.6	3	7	270	0.00	30.333 
12:55	26.4	21.6	26.4	49	9.9	4	9	270	0.00	30.335 
13:00	26.1	26.1	26.1	49	9.6	3	9	315	0.00	30.339 
13:05	25.6	25.6	25.6	50	9.6	3	10	292	0.00	30.345 
13:10	25.4	25.4	25.4	51	9.8	3	9	270	0.00	30.347 
13:15	25.4	25.4	25.4	52	10.3	3	14	315	0.00	30.346 
13:20	25.8	25.8	25.8	53	11.1	3	7	270	0.00	30.347 
13:25	25.7	25.7	25.7	51	10.1	3	7	315	0.00	30.349 
13:30	25.6	25.6	25.6	53	10.9	2	6	292	0.00	30.348 
13:35	25.7	25.7	25.7	52	10.5	3	9	292	0.00	30.348 
13:40	26.0	26.0	26.0	52	10.8	3	9	315	0.00	30.348 
13:45	25.7	25.7	25.7	54	11.4	3	7	315	0.00	30.349 
13:50	25.4	25.4	25.4	54	11.1	3	9	292	0.00	30.350 
13:55	25.3	25.3	25.3	55	11.4	3	10	270	0.00	30.351 
14:00	25.4	25.4	25.4	55	11.5	3	8	315	0.00	30.349 
14:05	25.3	20.3	25.3	54	11.0	4	10	292	0.00	30.351 
14:10	25.1	25.1	25.1	55	11.2	3	7	338	0.00	30.352 
14:15	25.8	25.8	25.8	54	11.5	3	7	270	0.00	30.351 
14:20	25.7	25.7	25.7	55	11.8	3	7	338	0.00	30.351 
14:25	25.4	25.4	25.4	55	11.5	3	7	315	0.00	30.352 
14:30	25.7	25.7	25.7	56	12.2	3	9	270	0.00	30.352 
14:35	25.6	20.7	25.6	57	12.5	4	7	270	0.00	30.355 
14:40	25.4	25.4	25.4	59	13.1	2	7	315	0.00	30.358 
14:45	25.3	25.3	25.3	61	13.8	2	5	292	0.00	30.363 
14:50	25.0	25.0	25.0	60	13.1	3	9	292	0.00	30.365 
14:55	24.8	24.8	24.8	61	13.3	3	7	292	0.00	30.364 
15:00	24.8	24.8	24.8	60	12.9	2	7	292	0.00	30.362 
15:05	25.0	25.0	25.0	59	12.7	1	6	0	0.00	30.364 
15:10	25.1	25.1	25.1	57	12.0	2	6	270	0.00	30.365 
15:15	25.1	25.1	25.1	57	12.0	2	5	292	0.00	30.367 
15:20	25.0	25.0	25.0	57	11.9	2	4	315	0.00	30.366 
15:25	24.8	24.8	24.8	57	11.8	2	6	315	0.00	30.367 
15:30	25.1	25.1	25.1	55	11.2	2	5	270	0.00	30.368 
15:35	25.4	25.4	25.4	54	11.1	2	5	292	0.00	30.368 
15:40	25.4	25.4	25.4	53	10.7	2	5	292	0.00	30.367 
15:45	25.4	25.4	25.4	53	10.7	2	10	292	0.00	30.369 
15:50	24.8	24.8	24.8	52	9.7	2	6	315	0.00	30.372 
15:55	24.5	24.5	24.5	53	9.8	2	7	315	0.00	30.377 
16:00	24.5	24.5	24.5	55	10.7	2	7	270	0.00	30.382 
16:05	24.5	24.5	24.5	55	10.7	1	5	315	0.00	30.386 
16:10	24.7	24.7	24.7	56	11.3	1	3	315	0.00	30.389 
16:15	24.4	24.4	24.4	57	11.4	1	5	315	0.00	30.387 
16:20	24.2	24.2	24.2	58	11.6	1	4	315	0.00	30.388 
16:25	24.4	24.4	24.4	59	12.2	1	3	248	0.00	30.389 
16:30	24.5	24.5	24.5	59	12.3	0	2	225	0.00	30.390 
16:35	24.7	24.7	24.7	60	12.8	1	7	270	0.00	30.389 
16:40	24.2	24.2	24.2	60	12.3	2	10	315	0.00	30.389 
16:45	23.8	23.8	23.8	59	11.6	2	10	338	0.00	30.394 
16:50	23.5	23.5	23.5	59	11.3	2	5	315	0.00	30.397 
16:55	23.2	23.2	23.2	59	11.0	1	4	315	0.00	30.402 
17:00	23.0	23.0	23.0	59	10.8	1	3	338	0.00	30.403 
17:05	22.7	22.7	22.7	60	10.9	1	4	270	0.00	30.404 
17:10	22.5	22.5	22.5	59	10.4	2	4	338	0.00	30.405 
17:15	22.2	22.2	22.2	59	10.1	2	4	292	0.00	30.405 
17:20	22.2	22.2	22.2	60	10.5	1	3	292	0.00	30.407 
17:25	22.1	22.1	22.1	60	10.4	1	4	248	0.00	30.411 
17:30	22.1	22.1	22.1	60	10.4	2	5	248	0.00	30.417 
17:35	22.2	22.2	22.2	61	10.8	1	4	292	0.00	30.418 
17:40	22.1	22.1	22.1	60	10.4	1	5	270	0.00	30.419 
17:45	21.9	21.9	21.9	60	10.2	1	5	292	0.00	30.421 
17:50	21.8	21.8	21.8	59	9.7	1	4	292	0.00	30.423 
17:55	21.6	21.6	21.6	60	9.9	1	6	270	0.00	30.423 
18:00	21.6	21.6	21.6	60	9.9	1	6	248	0.00	30.422 
18:05	21.4	21.4	21.4	61	10.1	2	6	270	0.00	30.427 
18:10	21.3	21.3	21.3	61	10.0	2	8	338	0.00	30.427 
18:15	21.1	21.1	21.1	62	10.1	1	3	270	0.00	30.430 
18:20	21.0	21.0	21.0	62	10.1	2	6	270	0.00	30.433 
18:25	21.0	21.0	21.0	63	10.4	1	3	248	0.00	30.436 
18:30	20.8	20.8	20.8	62	9.9	1	3	248	0.00	30.435 
18:35	20.8	20.8	20.8	63	10.2	1	4	338	0.00	30.436 
18:40	20.6	20.6	20.6	62	9.7	2	7	270	0.00	30.437 
18:45	20.5	20.5	20.5	62	9.6	1	5	315	0.00	30.439 
18:50	20.3	20.3	20.3	62	9.4	1	7	270	0.00	30.439 
18:55	20.2	20.2	20.2	62	9.3	1	4	338	0.00	30.440 
19:00	20.0	20.0	20.0	63	9.5	1	9	338	0.00	30.440 
19:05	19.7	19.7	19.7	63	9.2	1	3	315	0.00	30.441 
19:10	19.5	19.5	19.5	64	9.3	1	4	338	0.00	30.441 
19:15	19.4	19.4	19.4	64	9.2	1	4	292	0.00	30.440 
19:20	19.4	19.4	19.4	65	9.6	1	5	270	0.00	30.440 
19:25	19.2	19.2	19.2	65	9.4	0	3	292	0.00	30.440 
19:30	19.2	19.2	19.2	66	9.7	0	3	270	0.00	30.442 
19:35	19.1	19.1	19.1	66	9.6	0	2	270	0.00	30.447 
19:40	19.1	19.1	19.1	66	9.6	0	2	270	0.00	30.451 
19:45	19.1	19.1	19.1	66	9.6	1	3	270	0.00	30.452 
19:50	19.1	19.1	19.1	66	9.6	0	1	270	0.00	30.453 
19:55	19.1	19.1	19.1	66	9.6	1	3	248	0.00	30.453 
20:00	19.2	19.2	19.2	66	9.7	0	2	0	0.00	30.453 
20:05	19.4	19.4	19.4	66	9.9	0	1	0	0.00	30.454 
20:10	19.4	19.4	19.4	66	9.9	0	1	0	0.00	30.453 
20:15	19.4	19.4	19.4	67	10.3	0	1	0	0.00	30.451 
20:20	19.4	19.4	19.4	67	10.3	0	1	0	0.00	30.453 
20:25	19.4	19.4	19.4	67	10.3	0	2	338	0.00	30.451 
20:30	19.4	19.4	19.4	67	10.3	0	1	338	0.00	30.451 
20:35	19.4	19.4	19.4	68	10.6	0	0	---	0.00	30.451 
20:40	19.5	19.5	19.5	68	10.7	0	1	338	0.00	30.450 
20:45	19.5	19.5	19.5	68	10.7	0	1	338	0.00	30.451 
20:50	19.7	19.7	19.7	68	10.9	0	1	338	0.00	30.452 
20:55	19.7	19.7	19.7	68	10.9	0	1	338	0.00	30.454 
21:00	19.9	19.9	19.9	68	11.1	0	2	338	0.00	30.451 
21:05	19.9	19.9	19.9	68	11.1	0	2	338	0.00	30.451 
21:10	19.9	19.9	19.9	68	11.1	0	2	338	0.00	30.448 
21:15	19.9	19.9	19.9	67	10.7	0	1	338	0.00	30.445 
21:20	20.0	20.0	20.0	68	11.2	0	1	338	0.00	30.443 
21:25	20.0	20.0	20.0	68	11.2	0	1	338	0.00	30.442 
21:30	20.0	20.0	20.0	68	11.2	0	1	338	0.00	30.441 
21:35	20.0	20.0	20.0	68	11.2	0	2	338	0.00	30.440 
21:40	20.0	20.0	20.0	67	10.8	0	1	338	0.00	30.439 
21:45	20.0	20.0	20.0	67	10.8	0	1	338	0.00	30.437 
21:50	20.0	20.0	20.0	67	10.8	0	2	338	0.00	30.439 
21:55	20.0	20.0	20.0	67	10.8	0	1	315	0.00	30.439 
22:00	20.0	20.0	20.0	66	10.5	0	2	225	0.00	30.439 
22:05	19.9	19.9	19.9	66	10.4	0	1	225	0.00	30.437 
22:10	19.7	19.7	19.7	66	10.2	0	1	225	0.00	30.436 
22:15	19.5	19.5	19.5	65	9.7	0	1	292	0.00	30.434 
22:20	19.4	19.4	19.4	65	9.6	0	1	292	0.00	30.435 
22:25	19.2	19.2	19.2	65	9.4	0	2	248	0.00	30.433 
22:30	19.2	19.2	19.2	65	9.4	0	2	270	0.00	30.436 
22:35	19.1	19.1	19.1	65	9.3	0	2	270	0.00	30.434 
22:40	19.1	19.1	19.1	65	9.3	0	1	270	0.00	30.437 
22:45	19.1	19.1	19.1	65	9.3	0	1	270	0.00	30.433 
22:50	19.1	19.1	19.1	66	9.6	0	1	270	0.00	30.431 
22:55	19.1	19.1	19.1	66	9.6	0	1	270	0.00	30.427 
23:00	19.1	19.1	19.1	66	9.6	0	0	---	0.00	30.425 
23:05	19.1	19.1	19.1	66	9.6	0	1	270	0.00	30.425 
23:10	19.1	19.1	19.1	66	9.6	0	1	270	0.00	30.426 
23:15	18.9	18.9	18.9	66	9.4	0	1	270	0.00	30.426 
23:20	18.9	18.9	18.9	66	9.4	0	0	---	0.00	30.428 
23:25	18.9	18.9	18.9	66	9.4	0	1	270	0.00	30.425 
23:30	18.8	18.8	18.8	66	9.4	0	1	270	0.00	30.424 
23:35	18.6	18.6	18.6	66	9.2	0	1	270	0.00	30.424 
23:40	18.6	18.6	18.6	66	9.2	0	0	---	0.00	30.423 
23:45	18.3	18.3	18.3	66	8.9	0	0	---	0.00	30.426 
23:50	18.1	18.1	18.1	66	8.7	0	0	---	0.00	30.425 
23:55	18.0	18.0	18.0	67	8.9	0	1	270	0.00	30.429 

CoCoRaHS
IN-AL-39
A2 Web Hosting
Creative Commons License
GoDaddy
search engine by freefind advanced

loaded 2018-11-20 08:15:46 • last modified 2010-11-18 10:43:29
Privacy PolicyDisclaimer
• wx.awcolley.com is powered by PmWiki v.2002016 •
• all content (unless otherwise noted) © 2018 A W Colley